createdAt,value
2019-04-14T00:01:15.111Z,8.73
2019-04-14T00:02:33.752Z,8.74
2019-04-14T00:03:39.815Z,8.77
2019-04-14T00:04:46.766Z,8.73
2019-04-14T00:05:53.862Z,8.66
2019-04-14T00:06:59.154Z,8.69
2019-04-14T00:08:04.666Z,8.69
2019-04-14T00:09:12.008Z,8.63
2019-04-14T00:10:16.580Z,8.63
2019-04-14T00:11:21.245Z,8.60
2019-04-14T00:12:25.509Z,8.62
2019-04-14T00:13:30.651Z,8.63
2019-04-14T00:14:35.871Z,8.61
2019-04-14T00:15:44.844Z,8.60
2019-04-14T00:16:46.742Z,8.59
2019-04-14T00:17:51.040Z,8.59
2019-04-14T00:18:55.518Z,8.52
2019-04-14T00:20:00.895Z,8.51
2019-04-14T00:21:05.181Z,8.54
2019-04-14T00:22:11.562Z,8.58
2019-04-14T00:23:15.813Z,8.51
2019-04-14T00:24:20.683Z,8.54
2019-04-14T00:25:26.154Z,8.53
2019-04-14T00:26:33.539Z,8.52
2019-04-14T00:27:38.861Z,8.52
2019-04-14T00:28:43.103Z,8.46
2019-04-14T00:29:47.928Z,8.44
2019-04-14T00:30:53.328Z,8.42
2019-04-14T00:31:58.802Z,8.30
2019-04-14T00:33:16.982Z,8.31
2019-04-14T00:34:33.116Z,8.32
2019-04-14T00:35:42.764Z,8.36
2019-04-14T00:36:48.616Z,8.38
2019-04-14T00:38:06.357Z,8.38
2019-04-14T00:39:29.433Z,8.35
2019-04-14T00:40:38.925Z,8.25
2019-04-14T00:41:51.833Z,8.24
2019-04-14T00:42:55.944Z,8.25
2019-04-14T00:44:18.906Z,8.26
2019-04-14T00:45:33.926Z,8.27
2019-04-14T00:46:35.747Z,8.26
2019-04-14T00:47:56.741Z,8.28
2019-04-14T00:48:51.786Z,8.31
2019-04-14T00:49:57.181Z,8.36
2019-04-14T00:51:02.676Z,8.36
2019-04-14T00:52:07.939Z,8.33
2019-04-14T00:53:12.248Z,8.35
2019-04-14T00:54:17.496Z,8.33
2019-04-14T00:55:22.588Z,8.31
2019-04-14T00:56:27.878Z,8.29
2019-04-14T00:57:33.154Z,8.22
2019-04-14T00:58:37.505Z,8.22
2019-04-14T00:59:41.947Z,8.25
2019-04-14T01:00:47.345Z,8.20
2019-04-14T01:01:52.730Z,8.21
2019-04-14T01:02:57.978Z,8.06
2019-04-14T01:04:03.471Z,8.08
2019-04-14T01:05:08.816Z,8.15
2019-04-14T01:06:14.212Z,8.18
2019-04-14T01:07:19.527Z,8.21
2019-04-14T01:08:24.844Z,8.20
2019-04-14T01:09:30.433Z,8.23
2019-04-14T01:10:34.715Z,8.26
2019-04-14T01:11:40.008Z,8.27
2019-04-14T01:12:45.302Z,8.31
2019-04-14T01:13:50.726Z,8.35
2019-04-14T01:14:56.005Z,8.37
2019-04-14T01:16:07.038Z,8.39
2019-04-14T01:17:06.950Z,8.34
2019-04-14T01:18:12.449Z,8.30
2019-04-14T01:19:17.736Z,8.36
2019-04-14T01:20:23.157Z,8.33
2019-04-14T01:21:28.447Z,8.35
2019-04-14T01:22:33.560Z,8.36
2019-04-14T01:23:39.194Z,8.37
2019-04-14T01:24:44.600Z,8.37
2019-04-14T01:25:49.950Z,8.34
2019-04-14T01:26:55.023Z,8.35
2019-04-14T01:28:00.306Z,8.35
2019-04-14T01:29:05.839Z,8.37
2019-04-14T01:30:11.080Z,8.38
2019-04-14T01:31:16.582Z,8.33
2019-04-14T01:32:21.912Z,8.25
2019-04-14T01:33:27.266Z,8.21
2019-04-14T01:34:32.437Z,8.23
2019-04-14T01:35:37.849Z,8.21
2019-04-14T01:36:43.172Z,8.21
2019-04-14T01:37:48.542Z,8.21
2019-04-14T01:38:53.597Z,8.23
2019-04-14T01:39:58.846Z,8.29
2019-04-14T01:41:04.362Z,8.30
2019-04-14T01:42:09.501Z,8.30
2019-04-14T01:43:14.618Z,8.27
2019-04-14T01:44:19.864Z,8.28
2019-04-14T01:45:25.307Z,8.29
2019-04-14T01:46:32.622Z,8.33
2019-04-14T01:47:35.692Z,8.35
2019-04-14T01:48:40.838Z,8.36
2019-04-14T01:49:46.536Z,8.37
2019-04-14T01:51:09.152Z,8.39
2019-04-14T01:52:16.768Z,8.39
2019-04-14T01:53:39.999Z,8.39
2019-04-14T01:54:52.011Z,8.34
2019-04-14T01:56:03.672Z,8.28
2019-04-14T01:57:19.968Z,8.22
2019-04-14T01:58:31.868Z,8.19
2019-04-14T01:59:37.469Z,8.14
2019-04-14T02:00:49.338Z,8.10
2019-04-14T02:01:58.691Z,8.09
2019-04-14T02:03:04.133Z,8.13
2019-04-14T02:04:09.441Z,8.16
2019-04-14T02:05:14.605Z,8.16
2019-04-14T02:06:20.080Z,8.20
2019-04-14T02:07:25.530Z,8.23
2019-04-14T02:08:30.778Z,8.26
2019-04-14T02:09:35.770Z,8.24
2019-04-14T02:10:41.257Z,8.19
2019-04-14T02:11:46.636Z,8.16
2019-04-14T02:12:51.787Z,8.18
2019-04-14T02:13:57.208Z,8.16
2019-04-14T02:15:02.861Z,8.19
2019-04-14T02:16:21.070Z,8.20
2019-04-14T02:17:13.299Z,8.21
2019-04-14T02:18:18.560Z,8.23
2019-04-14T02:19:24.079Z,8.24
2019-04-14T02:20:29.617Z,8.25
2019-04-14T02:21:34.551Z,8.23
2019-04-14T02:22:39.800Z,8.23
2019-04-14T02:23:45.317Z,8.19
2019-04-14T02:24:50.351Z,8.20
2019-04-14T02:25:55.653Z,8.20
2019-04-14T02:27:01.166Z,8.17
2019-04-14T02:28:06.837Z,8.17
2019-04-14T02:29:12.159Z,8.22
2019-04-14T02:30:22.285Z,8.23
2019-04-14T02:31:46.760Z,8.24
2019-04-14T02:32:57.346Z,8.24
2019-04-14T02:34:21.645Z,8.24
2019-04-14T02:37:19.661Z,8.27
2019-04-14T02:38:36.054Z,8.28
2019-04-14T02:39:43.287Z,8.30
2019-04-14T02:41:56.769Z,8.22
2019-04-14T02:43:04.057Z,8.18
2019-04-14T02:44:14.744Z,8.16
2019-04-14T02:45:08.908Z,8.15
2019-04-14T02:46:05.197Z,8.17
2019-04-14T02:47:36.361Z,8.15
2019-04-14T02:49:30.964Z,8.19
2019-04-14T02:50:30.627Z,8.21
2019-04-14T02:52:53.651Z,8.18
2019-04-14T02:54:04.898Z,8.20
2019-04-14T02:54:58.788Z,8.20
2019-04-14T02:57:12.487Z,8.18
2019-04-14T02:58:20.231Z,8.10
2019-04-14T02:59:22.373Z,8.13
2019-04-14T03:00:37.203Z,8.14
2019-04-14T03:02:44.361Z,8.03
2019-04-14T03:03:46.827Z,7.97
2019-04-14T03:04:50.570Z,8.00
2019-04-14T03:06:01.255Z,8.05
2019-04-14T03:07:04.988Z,8.04
2019-04-14T03:08:11.436Z,8.08
2019-04-14T03:09:19.137Z,8.09
2019-04-14T03:10:28.129Z,8.16
2019-04-14T03:12:36.123Z,8.18
2019-04-14T03:14:47.964Z,8.17
2019-04-14T03:17:14.675Z,8.17
2019-04-14T03:19:49.606Z,8.23
2019-04-14T03:21:04.349Z,8.21
2019-04-14T03:22:26.137Z,8.17
2019-04-14T03:23:30.852Z,8.10
2019-04-14T03:24:35.888Z,8.08
2019-04-14T03:25:55.319Z,8.08
2019-04-14T03:27:00.048Z,8.08
2019-04-14T03:28:27.865Z,8.03
2019-04-14T03:29:40.793Z,8.11
2019-04-14T03:31:25.338Z,8.10
2019-04-14T03:36:44.246Z,8.17
2019-04-14T03:37:39.609Z,8.22
2019-04-14T03:39:45.969Z,8.23
2019-04-14T03:40:46.385Z,8.26
2019-04-14T03:41:45.631Z,8.24
2019-04-14T03:43:03.944Z,8.28
2019-04-14T03:43:54.583Z,8.29
2019-04-14T03:45:03.656Z,8.31
2019-04-14T03:47:22.080Z,8.34
2019-04-14T03:49:31.662Z,8.38
2019-04-14T03:50:39.362Z,8.39
2019-04-14T03:51:45.089Z,8.39
2019-04-14T03:53:53.425Z,8.43
2019-04-14T03:54:51.025Z,8.42
2019-04-14T03:55:55.318Z,8.42
2019-04-14T03:56:55.736Z,8.43
2019-04-14T03:58:00.578Z,8.40
2019-04-14T03:59:06.279Z,8.42
2019-04-14T04:00:11.741Z,8.40
2019-04-14T04:01:17.168Z,8.39
2019-04-14T04:02:22.632Z,8.39
2019-04-14T04:03:28.183Z,8.39
2019-04-14T04:04:33.761Z,8.40
2019-04-14T04:05:39.071Z,8.42
2019-04-14T04:06:44.255Z,8.43
2019-04-14T04:07:49.519Z,8.43
2019-04-14T04:08:53.883Z,8.42
2019-04-14T04:10:00.510Z,8.39
2019-04-14T04:11:06.123Z,8.41
2019-04-14T04:12:11.685Z,8.40
2019-04-14T04:13:17.146Z,8.40
2019-04-14T04:14:22.375Z,8.38
2019-04-14T04:15:27.802Z,8.37
2019-04-14T04:16:37.638Z,8.37
2019-04-14T04:17:43.551Z,8.36
2019-04-14T04:18:57.955Z,8.37
2019-04-14T04:20:02.584Z,8.37
2019-04-14T04:21:16.257Z,8.38
2019-04-14T04:22:39.010Z,8.37
2019-04-14T04:23:48.957Z,8.38
2019-04-14T04:25:11.494Z,8.37
2019-04-14T04:26:34.434Z,8.36
2019-04-14T04:27:56.911Z,8.32
2019-04-14T04:29:02.898Z,8.30
2019-04-14T04:30:18.688Z,8.29
2019-04-14T04:31:24.748Z,8.30
2019-04-14T04:32:31.893Z,8.30
2019-04-14T04:33:43.731Z,8.22
2019-04-14T04:34:55.591Z,8.32
2019-04-14T04:36:05.268Z,8.28
2019-04-14T04:37:17.186Z,8.29
2019-04-14T04:38:23.159Z,8.30
2019-04-14T04:39:30.163Z,8.29
2019-04-14T04:40:35.379Z,8.28
2019-04-14T04:41:41.304Z,8.27
2019-04-14T04:42:45.826Z,8.25
2019-04-14T04:43:50.045Z,8.25
2019-04-14T04:44:55.341Z,8.25
2019-04-14T04:46:00.602Z,8.26
2019-04-14T04:47:05.680Z,8.26
2019-04-14T04:48:10.913Z,8.24
2019-04-14T04:49:21.153Z,8.24
2019-04-14T04:50:21.435Z,8.23
2019-04-14T04:51:26.882Z,8.22
2019-04-14T04:52:32.251Z,8.23
2019-04-14T04:53:37.619Z,8.21
2019-04-14T04:54:42.845Z,8.21
2019-04-14T04:55:48.110Z,8.20
2019-04-14T04:56:53.670Z,8.18
2019-04-14T04:57:59.164Z,8.17
2019-04-14T04:59:05.464Z,8.16
2019-04-14T05:00:11.297Z,8.10
2019-04-14T05:01:16.739Z,8.12
2019-04-14T05:02:22.105Z,8.10
2019-04-14T05:03:27.587Z,8.10
2019-04-14T05:04:32.960Z,8.10
2019-04-14T05:06:08.978Z,8.11
2019-04-14T05:07:14.390Z,8.13
2019-04-14T05:08:19.543Z,8.13
2019-04-14T05:09:28.136Z,8.14
2019-04-14T05:10:34.987Z,8.14
2019-04-14T05:11:40.888Z,8.14
2019-04-14T05:12:47.864Z,8.14
2019-04-14T05:13:55.357Z,8.13
2019-04-14T05:15:03.369Z,8.14
2019-04-14T05:16:08.885Z,8.13
2019-04-14T05:17:14.859Z,8.14
2019-04-14T05:18:20.020Z,8.15
2019-04-14T05:19:30.367Z,8.16
2019-04-14T05:20:31.292Z,8.18
2019-04-14T05:21:36.576Z,8.18
2019-04-14T05:22:41.853Z,8.19
2019-04-14T05:23:47.302Z,8.20
2019-04-14T05:24:52.804Z,8.21
2019-04-14T05:25:58.136Z,8.21
2019-04-14T05:27:03.537Z,8.21
2019-04-14T05:28:09.015Z,8.22
2019-04-14T05:29:14.469Z,8.19
2019-04-14T05:30:19.700Z,8.19
2019-04-14T05:31:27.322Z,8.19
2019-04-14T05:32:30.519Z,8.19
2019-04-14T05:33:35.927Z,8.19
2019-04-14T05:34:43.541Z,8.17
2019-04-14T05:35:50.995Z,8.17
2019-04-14T05:36:56.361Z,8.15
2019-04-14T05:38:01.751Z,8.13
2019-04-14T05:39:06.868Z,8.12
2019-04-14T05:40:12.325Z,8.11
2019-04-14T05:41:17.903Z,8.13
2019-04-14T05:42:25.516Z,8.11
2019-04-14T05:43:38.725Z,8.13
2019-04-14T05:44:34.085Z,8.13
2019-04-14T05:45:39.424Z,8.14
2019-04-14T05:46:44.689Z,8.18
2019-04-14T05:47:50.558Z,8.19
2019-04-14T05:48:55.763Z,8.20
2019-04-14T05:50:00.917Z,8.24
2019-04-14T05:51:06.425Z,8.20
2019-04-14T05:52:11.956Z,8.21
2019-04-14T05:53:17.532Z,8.20
2019-04-14T05:54:23.163Z,8.10
2019-04-14T05:55:28.460Z,8.13
2019-04-14T05:56:35.834Z,8.06
2019-04-14T05:57:39.496Z,8.02
2019-04-14T05:58:44.745Z,8.02
2019-04-14T05:59:50.535Z,8.03
2019-04-14T06:00:56.351Z,8.04
2019-04-14T06:02:04.791Z,8.07
2019-04-14T06:03:10.194Z,8.07
2019-04-14T06:04:15.612Z,8.10
2019-04-14T06:05:21.106Z,8.08
2019-04-14T06:06:25.493Z,8.07
2019-04-14T06:07:29.693Z,8.04
2019-04-14T06:08:35.541Z,8.07
2019-04-14T06:09:39.880Z,8.11
2019-04-14T06:10:44.079Z,8.07
2019-04-14T06:11:48.424Z,8.16
2019-04-14T06:12:52.618Z,8.12
2019-04-14T06:13:56.887Z,8.16
2019-04-14T06:15:01.240Z,8.15
2019-04-14T06:16:05.571Z,8.19
2019-04-14T06:17:09.778Z,8.20
2019-04-14T06:18:13.971Z,8.25
2019-04-14T06:19:19.849Z,8.30
2019-04-14T06:20:24.189Z,8.28
2019-04-14T06:21:28.391Z,8.31
2019-04-14T06:22:32.622Z,8.32
2019-04-14T06:23:36.818Z,8.33
2019-04-14T06:24:41.881Z,8.25
2019-04-14T06:25:46.069Z,8.25
2019-04-14T06:26:50.260Z,8.26
2019-04-14T06:27:54.512Z,8.28
2019-04-14T06:28:58.764Z,8.31
2019-04-14T06:30:05.190Z,8.13
2019-04-14T06:31:16.844Z,8.22
2019-04-14T06:32:22.685Z,8.24
2019-04-14T06:33:31.079Z,8.28
2019-04-14T06:34:36.911Z,8.31
2019-04-14T06:35:42.769Z,8.35
2019-04-14T06:36:48.601Z,8.39
2019-04-14T06:37:57.160Z,8.42
2019-04-14T06:39:12.052Z,8.45
2019-04-14T06:40:16.391Z,8.47
2019-04-14T06:41:20.823Z,8.48
2019-04-14T06:42:26.659Z,8.45
2019-04-14T06:43:30.895Z,8.50
2019-04-14T06:44:35.226Z,8.55
2019-04-14T06:45:39.501Z,8.57
2019-04-14T06:46:43.702Z,8.60
2019-04-14T06:47:47.979Z,8.65
2019-04-14T06:48:53.158Z,8.66
2019-04-14T06:49:57.349Z,8.66
2019-04-14T06:51:01.709Z,8.55
2019-04-14T06:52:05.918Z,8.68
2019-04-14T06:53:10.253Z,8.69
2019-04-14T06:54:14.475Z,8.70
2019-04-14T06:55:18.739Z,8.71
2019-04-14T06:56:22.933Z,8.72
2019-04-14T06:57:28.782Z,8.67
2019-04-14T06:58:33.130Z,8.63
2019-04-14T06:59:37.353Z,8.65
2019-04-14T07:00:41.655Z,8.58
2019-04-14T07:01:46.032Z,8.60
2019-04-14T07:02:50.226Z,8.61
2019-04-14T07:03:54.431Z,8.66
2019-04-14T07:04:58.628Z,8.71
2019-04-14T07:06:02.935Z,8.75
2019-04-14T07:07:07.247Z,8.80
2019-04-14T07:08:11.591Z,8.82
2019-04-14T07:09:15.873Z,8.84
2019-04-14T07:10:20.276Z,8.81
2019-04-14T07:11:24.781Z,8.82
2019-04-14T07:12:28.976Z,8.71
2019-04-14T07:13:33.223Z,8.75
2019-04-14T07:14:37.436Z,8.75
2019-04-14T07:15:41.695Z,8.70
2019-04-14T07:16:46.121Z,8.73
2019-04-14T07:17:50.319Z,8.72
2019-04-14T07:18:54.563Z,8.78
2019-04-14T07:20:02.266Z,8.82
2019-04-14T07:21:04.911Z,8.86
2019-04-14T07:22:09.148Z,8.87
2019-04-14T07:23:14.409Z,8.94
2019-04-14T07:24:18.743Z,8.93
2019-04-14T07:25:22.940Z,8.93
2019-04-14T07:26:27.203Z,8.90
2019-04-14T07:27:31.485Z,8.89
2019-04-14T07:28:36.460Z,8.98
2019-04-14T07:29:42.296Z,9.03
2019-04-14T07:30:57.353Z,9.07
2019-04-14T07:32:12.416Z,9.10
2019-04-14T07:33:24.022Z,9.12
2019-04-14T07:34:45.249Z,9.10
2019-04-14T07:35:57.266Z,9.08
2019-04-14T07:37:12.126Z,9.08
2019-04-14T07:38:18.006Z,9.06
2019-04-14T07:39:36.843Z,9.06
2019-04-14T07:40:42.680Z,9.10
2019-04-14T07:41:54.641Z,9.07
2019-04-14T07:43:00.522Z,9.09
2019-04-14T07:44:06.328Z,9.09
2019-04-14T07:45:21.231Z,9.13
2019-04-14T07:46:42.043Z,9.13
2019-04-14T07:47:50.375Z,9.12
2019-04-14T07:49:08.160Z,9.03
2019-04-14T07:50:17.230Z,9.03
2019-04-14T07:51:23.068Z,9.05
2019-04-14T07:52:28.908Z,9.09
2019-04-14T07:53:34.813Z,9.10
2019-04-14T07:54:43.451Z,9.16
2019-04-14T07:55:49.375Z,9.21
2019-04-14T07:57:04.113Z,9.21
2019-04-14T07:58:16.008Z,9.20
2019-04-14T07:59:24.354Z,9.24
2019-04-14T08:00:48.473Z,9.30
2019-04-14T08:02:09.096Z,9.32
2019-04-14T08:03:17.046Z,9.35
2019-04-14T08:04:22.808Z,9.34
2019-04-14T08:05:34.433Z,9.35
2019-04-14T08:06:38.701Z,9.39
2019-04-14T08:07:44.068Z,9.45
2019-04-14T08:08:48.395Z,9.50
2019-04-14T08:09:52.594Z,9.50
2019-04-14T08:10:57.226Z,9.56
2019-04-14T08:12:01.452Z,9.62
2019-04-14T08:13:05.653Z,9.68
2019-04-14T08:14:11.058Z,9.74
2019-04-14T08:15:15.287Z,9.78
2019-04-14T08:16:19.555Z,9.83
2019-04-14T08:17:23.810Z,9.88
2019-04-14T08:18:28.018Z,9.91
2019-04-14T08:19:32.416Z,9.96
2019-04-14T08:20:36.612Z,10.00
2019-04-14T08:21:40.815Z,10.07
2019-04-14T08:22:45.050Z,10.08
2019-04-14T08:23:49.226Z,10.15
2019-04-14T08:24:53.459Z,10.21
2019-04-14T08:25:57.665Z,10.27
2019-04-14T08:27:01.876Z,10.34
2019-04-14T08:28:06.079Z,10.39
2019-04-14T08:29:10.281Z,10.44
2019-04-14T08:30:14.911Z,10.50
2019-04-14T08:31:19.133Z,10.52
2019-04-14T08:32:23.340Z,10.56
2019-04-14T08:33:29.226Z,10.63
2019-04-14T08:34:34.584Z,10.70
2019-04-14T08:35:38.866Z,10.75
2019-04-14T08:36:43.135Z,10.82
2019-04-14T08:37:47.791Z,10.89
2019-04-14T08:38:51.959Z,10.95
2019-04-14T08:39:56.228Z,10.98
2019-04-14T08:41:00.473Z,11.06
2019-04-14T08:42:22.624Z,11.13
2019-04-14T08:43:43.847Z,11.17
2019-04-14T08:44:49.691Z,11.26
2019-04-14T08:45:55.532Z,11.33
2019-04-14T08:47:01.487Z,11.41
2019-04-14T08:48:10.384Z,11.46
2019-04-14T08:49:25.310Z,11.54
2019-04-14T08:50:39.566Z,11.61
2019-04-14T08:51:50.366Z,11.73
2019-04-14T08:52:56.229Z,11.82
2019-04-14T08:54:10.685Z,11.90
2019-04-14T08:55:16.636Z,11.92
2019-04-14T08:56:28.264Z,12.00
2019-04-14T08:57:39.995Z,12.04
2019-04-14T08:58:52.032Z,12.10
2019-04-14T09:00:00.744Z,12.18
2019-04-14T09:01:15.638Z,12.22
2019-04-14T09:02:27.242Z,12.23
2019-04-14T09:03:49.373Z,12.27
2019-04-14T09:04:55.225Z,12.31
2019-04-14T09:06:17.222Z,12.37
2019-04-14T09:07:23.095Z,12.44
2019-04-14T09:08:34.792Z,12.49
2019-04-14T09:09:43.383Z,12.56
2019-04-14T09:11:01.347Z,12.66
2019-04-14T09:12:15.495Z,12.72
2019-04-14T09:13:13.173Z,12.82
2019-04-14T09:14:17.391Z,12.79
2019-04-14T09:15:22.082Z,12.81
2019-04-14T09:16:26.288Z,12.79
2019-04-14T09:17:30.873Z,12.83
2019-04-14T09:18:35.095Z,12.89
2019-04-14T09:19:39.296Z,12.96
2019-04-14T09:20:52.236Z,13.02
2019-04-14T09:21:49.401Z,13.08
2019-04-14T09:22:53.612Z,13.13
2019-04-14T09:23:58.294Z,13.15
2019-04-14T09:25:02.532Z,13.14
2019-04-14T09:26:06.879Z,13.11
2019-04-14T09:27:13.834Z,13.16
2019-04-14T09:28:19.972Z,13.22
2019-04-14T09:29:24.253Z,13.28
2019-04-14T09:30:28.523Z,13.28
2019-04-14T09:31:32.977Z,13.33
2019-04-14T09:32:37.175Z,13.38
2019-04-14T09:33:41.397Z,13.41
2019-04-14T09:34:45.686Z,13.45
2019-04-14T09:35:49.870Z,13.50
2019-04-14T09:36:54.071Z,13.50
2019-04-14T09:37:58.272Z,13.52
2019-04-14T09:39:02.666Z,13.53
2019-04-14T09:40:08.427Z,13.55
2019-04-14T09:41:12.691Z,13.60
2019-04-14T09:42:17.133Z,13.61
2019-04-14T09:43:21.322Z,13.65
2019-04-14T09:44:25.650Z,13.64
2019-04-14T09:45:30.123Z,13.66
2019-04-14T09:46:34.322Z,13.67
2019-04-14T09:47:38.529Z,13.75
2019-04-14T09:48:43.117Z,13.75
2019-04-14T09:49:47.428Z,13.80
2019-04-14T09:51:03.934Z,13.84
2019-04-14T09:51:59.146Z,13.85
2019-04-14T09:53:03.530Z,13.87
2019-04-14T09:54:07.760Z,13.91
2019-04-14T09:55:12.123Z,13.96
2019-04-14T09:56:16.373Z,14.03
2019-04-14T09:57:20.613Z,14.08
2019-04-14T09:58:25.042Z,14.11
2019-04-14T09:59:29.272Z,14.14
2019-04-14T10:00:35.440Z,14.15
2019-04-14T10:01:39.801Z,14.10
2019-04-14T10:02:44.016Z,14.04
2019-04-14T10:03:48.244Z,14.11
2019-04-14T10:04:52.456Z,14.19
2019-04-14T10:05:56.671Z,14.25
2019-04-14T10:07:02.108Z,14.30
2019-04-14T10:08:06.541Z,14.37
2019-04-14T10:09:10.736Z,14.43
2019-04-14T10:10:15.044Z,14.41
2019-04-14T10:11:19.996Z,14.45
2019-04-14T10:12:24.333Z,14.52
2019-04-14T10:13:28.592Z,14.61
2019-04-14T10:14:32.879Z,14.60
2019-04-14T10:15:37.064Z,14.73
2019-04-14T10:16:41.360Z,14.82
2019-04-14T10:17:45.580Z,14.87
2019-04-14T10:18:50.873Z,14.95
2019-04-14T10:19:55.091Z,15.07
2019-04-14T10:20:59.293Z,15.07
2019-04-14T10:22:04.308Z,15.13
2019-04-14T10:23:08.561Z,15.24
2019-04-14T10:24:12.732Z,15.31
2019-04-14T10:25:16.998Z,15.40
2019-04-14T10:26:22.574Z,15.47
2019-04-14T10:27:26.768Z,15.55
2019-04-14T10:28:31.062Z,15.63
2019-04-14T10:29:35.421Z,15.64
2019-04-14T10:30:39.723Z,15.71
2019-04-14T10:31:43.925Z,15.78
2019-04-14T10:32:48.519Z,15.90
2019-04-14T10:33:52.764Z,15.95
2019-04-14T10:34:56.959Z,16.02
2019-04-14T10:36:01.155Z,16.13
2019-04-14T10:37:05.826Z,16.21
2019-04-14T10:38:10.045Z,16.21
2019-04-14T10:39:14.267Z,16.26
2019-04-14T10:40:18.600Z,16.21
2019-04-14T10:41:22.812Z,16.21
2019-04-14T10:42:27.024Z,16.21
2019-04-14T10:43:31.305Z,16.18
2019-04-14T10:44:35.550Z,16.13
2019-04-14T10:45:39.842Z,16.13
2019-04-14T10:46:44.049Z,16.19
2019-04-14T10:47:48.275Z,16.22
2019-04-14T10:48:52.470Z,16.30
2019-04-14T10:49:59.331Z,16.43
2019-04-14T10:51:04.525Z,16.52
2019-04-14T10:52:10.016Z,16.68
2019-04-14T10:53:14.218Z,16.73
2019-04-14T10:54:18.630Z,16.86
2019-04-14T10:55:22.944Z,17.01
2019-04-14T10:56:27.254Z,17.11
2019-04-14T10:57:31.495Z,17.21
2019-04-14T10:58:35.766Z,17.41
2019-04-14T10:59:40.068Z,17.60
2019-04-14T11:00:44.376Z,17.70
2019-04-14T11:01:48.661Z,17.72
2019-04-14T11:02:52.966Z,17.74
2019-04-14T11:03:57.167Z,17.78
2019-04-14T11:05:01.456Z,17.80
2019-04-14T11:06:23.509Z,17.79
2019-04-14T11:07:29.347Z,17.78
2019-04-14T11:08:33.716Z,17.79
2019-04-14T11:09:37.915Z,17.84
2019-04-14T11:10:42.191Z,17.94
2019-04-14T11:11:46.592Z,17.99
2019-04-14T11:12:52.435Z,17.96
2019-04-14T11:13:56.626Z,17.94
2019-04-14T11:15:00.862Z,17.90
2019-04-14T11:16:05.235Z,17.93
2019-04-14T11:17:09.904Z,17.90
2019-04-14T11:18:14.103Z,18.01
2019-04-14T11:19:19.267Z,18.12
2019-04-14T11:20:23.462Z,18.23
2019-04-14T11:21:41.674Z,18.28
2019-04-14T11:22:35.329Z,18.33
2019-04-14T11:23:39.533Z,18.38
2019-04-14T11:24:43.758Z,18.38
2019-04-14T11:25:47.991Z,18.42
2019-04-14T11:26:52.197Z,18.39
2019-04-14T11:27:56.432Z,18.39
2019-04-14T11:29:00.699Z,18.37
2019-04-14T11:30:08.431Z,18.33
2019-04-14T11:31:13.714Z,18.30
2019-04-14T11:32:34.020Z,18.26
2019-04-14T11:33:56.277Z,18.28
2019-04-14T11:35:17.850Z,18.31
2019-04-14T11:36:26.473Z,18.32
2019-04-14T11:37:48.767Z,18.34
2019-04-14T11:38:54.635Z,18.31
2019-04-14T11:39:58.856Z,18.31
2019-04-14T11:41:04.712Z,18.34
2019-04-14T11:42:08.912Z,18.35
2019-04-14T11:43:13.094Z,18.34
2019-04-14T11:44:17.319Z,18.34
2019-04-14T11:45:22.689Z,18.30
2019-04-14T11:46:27.034Z,18.33
2019-04-14T11:47:31.334Z,18.32
2019-04-14T11:48:35.531Z,18.31
2019-04-14T11:49:39.845Z,18.30
2019-04-14T11:50:44.043Z,18.34
2019-04-14T11:51:55.156Z,18.35
2019-04-14T11:52:55.179Z,18.27
2019-04-14T11:53:59.920Z,18.29
2019-04-14T11:55:05.423Z,18.34
2019-04-14T11:56:09.690Z,18.20
2019-04-14T11:57:13.882Z,18.23
2019-04-14T11:58:18.109Z,18.25
2019-04-14T11:59:23.944Z,18.28
2019-04-14T12:00:45.972Z,18.30
2019-04-14T12:01:51.814Z,18.27
2019-04-14T12:03:12.980Z,18.32
2019-04-14T12:04:26.040Z,18.33
2019-04-14T12:05:41.140Z,18.31
2019-04-14T12:06:47.152Z,18.24
2019-04-14T12:08:08.040Z,18.16
2019-04-14T12:09:16.972Z,18.11
2019-04-14T12:10:22.026Z,18.06
2019-04-14T12:11:26.296Z,18.07
2019-04-14T12:12:30.696Z,18.06
2019-04-14T12:13:34.919Z,18.08
2019-04-14T12:14:39.196Z,18.07
2019-04-14T12:15:43.414Z,17.98
2019-04-14T12:16:47.760Z,17.99
2019-04-14T12:17:51.975Z,17.99
2019-04-14T12:18:56.344Z,17.97
2019-04-14T12:20:02.272Z,18.01
2019-04-14T12:21:06.490Z,18.06
2019-04-14T12:22:10.698Z,18.07
2019-04-14T12:23:16.119Z,18.11
2019-04-14T12:24:20.555Z,18.16
2019-04-14T12:25:24.848Z,18.15
2019-04-14T12:26:29.239Z,18.22
2019-04-14T12:27:33.709Z,18.27
2019-04-14T12:28:38.331Z,18.31
2019-04-14T12:29:43.309Z,18.28
2019-04-14T12:30:48.864Z,18.30
2019-04-14T12:31:53.219Z,18.27
2019-04-14T12:32:57.425Z,18.31
2019-04-14T12:34:01.655Z,18.34
2019-04-14T12:35:06.003Z,18.25
2019-04-14T12:36:12.041Z,18.19
2019-04-14T12:37:16.301Z,18.15
2019-04-14T12:38:20.494Z,18.11
2019-04-14T12:39:26.328Z,18.12
2019-04-14T12:40:30.517Z,18.05
2019-04-14T12:41:42.521Z,18.08
2019-04-14T12:43:00.185Z,18.09
2019-04-14T12:44:15.541Z,18.13
2019-04-14T12:45:33.838Z,18.15
2019-04-14T12:46:45.708Z,18.18
2019-04-14T12:48:00.473Z,18.20
2019-04-14T12:49:09.227Z,18.22
2019-04-14T12:50:20.722Z,18.21
2019-04-14T12:51:30.988Z,18.15
2019-04-14T12:52:35.301Z,18.14
2019-04-14T12:53:39.498Z,18.17
2019-04-14T12:54:43.835Z,18.16
2019-04-14T12:55:48.070Z,18.19
2019-04-14T12:56:52.343Z,18.13
2019-04-14T12:58:04.288Z,18.13
2019-04-14T12:59:10.139Z,18.15
2019-04-14T13:00:15.969Z,18.18
2019-04-14T13:01:21.881Z,18.22
2019-04-14T13:02:30.463Z,18.20
2019-04-14T13:03:35.073Z,18.10
2019-04-14T13:04:39.338Z,18.08
2019-04-14T13:05:44.800Z,18.10
2019-04-14T13:06:48.999Z,18.09
2019-04-14T13:07:53.526Z,18.06
2019-04-14T13:08:57.730Z,18.06
2019-04-14T13:10:02.315Z,18.08
2019-04-14T13:11:06.590Z,18.11
2019-04-14T13:12:10.863Z,18.13
2019-04-14T13:13:16.763Z,18.11
2019-04-14T13:14:20.979Z,18.13
2019-04-14T13:15:25.250Z,18.16
2019-04-14T13:16:29.600Z,18.14
2019-04-14T13:17:36.458Z,18.16
2019-04-14T13:18:40.791Z,18.15
2019-04-14T13:19:45.138Z,18.10
2019-04-14T13:20:49.673Z,18.18
2019-04-14T13:21:53.979Z,18.18
2019-04-14T13:22:58.226Z,18.18
2019-04-14T13:24:02.502Z,18.21
2019-04-14T13:25:07.336Z,18.19
2019-04-14T13:26:11.591Z,18.19
2019-04-14T13:27:15.836Z,18.19
2019-04-14T13:28:20.037Z,18.18
2019-04-14T13:29:24.303Z,18.06
2019-04-14T13:30:33.202Z,18.07
2019-04-14T13:31:37.443Z,18.10
2019-04-14T13:32:41.743Z,18.04
2019-04-14T13:33:46.194Z,18.05
2019-04-14T13:34:50.457Z,18.07
2019-04-14T13:35:54.687Z,18.11
2019-04-14T13:36:59.944Z,18.01
2019-04-14T13:38:04.746Z,18.02
2019-04-14T13:39:12.607Z,18.04
2019-04-14T13:40:16.019Z,18.04
2019-04-14T13:41:20.219Z,18.07
2019-04-14T13:42:24.631Z,18.09
2019-04-14T13:43:28.892Z,18.11
2019-04-14T13:44:34.468Z,18.15
2019-04-14T13:45:38.804Z,18.18
2019-04-14T13:46:43.007Z,18.19
2019-04-14T13:47:47.344Z,18.19
2019-04-14T13:48:51.549Z,18.27
2019-04-14T13:49:56.396Z,18.32
2019-04-14T13:51:00.668Z,18.34
2019-04-14T13:52:05.058Z,18.34
2019-04-14T13:53:09.261Z,18.36
2019-04-14T13:54:13.461Z,18.37
2019-04-14T13:55:17.701Z,18.34
2019-04-14T13:56:21.936Z,18.37
2019-04-14T13:57:26.157Z,18.40
2019-04-14T13:58:30.388Z,18.43
2019-04-14T13:59:34.587Z,18.42
2019-04-14T14:00:38.829Z,18.43
2019-04-14T14:01:43.028Z,18.41
2019-04-14T14:02:47.226Z,18.44
2019-04-14T14:03:51.500Z,18.45
2019-04-14T14:04:55.694Z,18.44
2019-04-14T14:05:59.951Z,18.37
2019-04-14T14:07:05.555Z,18.37
2019-04-14T14:08:11.347Z,18.30
2019-04-14T14:09:15.523Z,18.15
2019-04-14T14:10:19.865Z,18.12
2019-04-14T14:11:25.816Z,18.07
2019-04-14T14:12:37.412Z,18.07
2019-04-14T14:13:47.160Z,17.99
2019-04-14T14:15:02.251Z,17.99
2019-04-14T14:16:16.042Z,18.00
2019-04-14T14:17:39.761Z,17.99
2019-04-14T14:19:00.981Z,17.91
2019-04-14T14:20:11.490Z,17.92
2019-04-14T14:21:28.505Z,17.95
2019-04-14T14:22:39.768Z,17.97
2019-04-14T14:23:45.609Z,18.01
2019-04-14T14:24:57.505Z,18.04
2019-04-14T14:26:03.482Z,18.07
2019-04-14T14:27:09.012Z,18.07
2019-04-14T14:28:13.220Z,18.09
2019-04-14T14:29:17.510Z,18.08
2019-04-14T14:30:21.746Z,18.06
2019-04-14T14:31:26.012Z,18.01
2019-04-14T14:32:34.297Z,18.03
2019-04-14T14:33:38.499Z,18.06
2019-04-14T14:34:42.698Z,18.06
2019-04-14T14:35:46.942Z,18.06
2019-04-14T14:36:51.211Z,18.07
2019-04-14T14:37:55.416Z,18.11
2019-04-14T14:38:59.649Z,18.11
2019-04-14T14:40:05.531Z,18.13
2019-04-14T14:41:11.395Z,18.08
2019-04-14T14:42:15.592Z,18.03
2019-04-14T14:43:19.794Z,18.04
2019-04-14T14:44:25.842Z,18.04
2019-04-14T14:45:34.323Z,18.05
2019-04-14T14:46:45.862Z,18.01
2019-04-14T14:47:54.415Z,17.89
2019-04-14T14:49:03.024Z,17.83
2019-04-14T14:50:08.936Z,17.80
2019-04-14T14:51:14.885Z,17.80
2019-04-14T14:52:20.786Z,17.81
2019-04-14T14:53:26.041Z,17.81
2019-04-14T14:54:30.244Z,17.74